Hauptseite
METAR-TAF:

METAR-TAF

Flughäfen :

Piacenza, Italien

Militärflugplatz Piacenza

Breite: 44-55N, Länge: 009-44E, Höhe: 134 m

Beobachtung

Neuester Wetterbericht von vor 7 Stunden und 43 Minuten, um 17:55 UTC
Wind 5 kt aus Südost
Temperatur 6°C
Luftfeuchtigkeit 93%
Luftdruck 1009 hPa
Sichtweite: 7000 m
Leicht bewölkt in der Höhe von 4000 ft

METAR: LIMS 241755Z 13005KT 7000 FEW040 06/05 Q1009 RMK SCT SCT100 VIS MIN 7000 WIND THR30 /////KT WHT

Zeit: 02:38 (01:38 UTC)


TAF: fehlend

Wetterbeobachtungen und Prognosen von mehr als 4000 Flughäfen (METAR und TAF Bericht).

Die verfügbaren Stationen werden durch gelbe und rote Markierungen auf der Karte dargestellt.

Führen Sie die Maus auf sie, um den Namen der Station zu sehen.

Darauf klicken, um die Beobachtung von Wetterbeobachtungen und Prognosen zu sehen.

Um die Karte zu ändern : klicken Sie auf den grünen Tasten mit einem schwarzen Kreuz Zum Vergrößern, auf den grünen Button mit einem Gedankenstrich zu verkleinern, oder auf die grünen Pfeile für benachbarte Karten.


METAR-TAF: